createdAt,value
2018-09-03T00:00:29.641Z,1000.42
2018-09-03T00:01:29.592Z,1000.37
2018-09-03T00:02:29.590Z,1000.37
2018-09-03T00:03:29.567Z,1000.33
2018-09-03T00:04:29.557Z,1000.30
2018-09-03T00:05:29.545Z,1000.27
2018-09-03T00:06:29.568Z,1000.27
2018-09-03T00:07:29.521Z,1000.25
2018-09-03T00:08:29.532Z,1000.24
2018-09-03T00:09:29.505Z,1000.24
2018-09-03T00:10:29.490Z,1000.19
2018-09-03T00:11:29.479Z,1000.22
2018-09-03T00:12:29.505Z,1000.23
2018-09-03T00:13:29.456Z,1000.27
2018-09-03T00:14:29.459Z,1000.22
2018-09-03T00:15:29.438Z,1000.23
2018-09-03T00:16:29.424Z,1000.16
2018-09-03T00:17:29.412Z,1000.20
2018-09-03T00:18:29.436Z,1000.20
2018-09-03T00:19:29.397Z,1000.16
2018-09-03T00:20:29.401Z,1000.13
2018-09-03T00:21:29.371Z,1000.12
2018-09-03T00:22:29.358Z,1000.10
2018-09-03T00:23:29.346Z,1000.04
2018-09-03T00:24:29.369Z,1000.05
2018-09-03T00:25:29.327Z,1000.06
2018-09-03T00:26:29.333Z,1000.04
2018-09-03T00:27:29.304Z,999.99
2018-09-03T00:28:29.294Z,999.96
2018-09-03T00:29:29.281Z,999.94
2018-09-03T00:30:29.311Z,999.95
2018-09-03T00:31:29.263Z,999.92
2018-09-03T00:32:29.253Z,999.91
2018-09-03T00:33:29.238Z,999.86
2018-09-03T00:34:29.229Z,999.79
2018-09-03T00:35:29.218Z,999.82
2018-09-03T00:36:29.236Z,999.83
2018-09-03T00:37:29.195Z,999.77
2018-09-03T00:38:29.208Z,999.72
2018-09-03T00:39:29.210Z,999.77
2018-09-03T00:40:29.162Z,999.75
2018-09-03T00:41:29.151Z,999.80
2018-09-03T00:42:29.184Z,999.72
2018-09-03T00:43:29.133Z,999.76
2018-09-03T00:44:29.139Z,999.70
2018-09-03T00:45:29.107Z,999.70
2018-09-03T00:46:29.099Z,999.71
2018-09-03T00:47:29.087Z,999.71
2018-09-03T00:48:29.120Z,999.69
2018-09-03T00:49:29.065Z,999.70
2018-09-03T00:50:29.070Z,999.65
2018-09-03T00:51:29.043Z,999.67
2018-09-03T00:52:29.031Z,999.65
2018-09-03T00:53:29.023Z,999.61
2018-09-03T00:54:29.041Z,999.60
2018-09-03T00:55:29.000Z,999.57
2018-09-03T00:56:29.008Z,999.55
2018-09-03T00:57:28.977Z,999.53
2018-09-03T00:58:28.969Z,999.54
2018-09-03T00:59:28.953Z,999.50
2018-09-03T01:00:28.993Z,999.54
2018-09-03T01:01:28.932Z,999.53
2018-09-03T01:02:28.938Z,999.52
2018-09-03T01:03:28.912Z,999.51
2018-09-03T01:04:28.900Z,999.50
2018-09-03T01:05:28.889Z,999.53
2018-09-03T01:06:28.918Z,999.55
2018-09-03T01:07:28.867Z,999.56
2018-09-03T01:08:28.867Z,999.55
2018-09-03T01:09:28.848Z,999.58
2018-09-03T01:10:28.848Z,999.50
2018-09-03T01:11:28.826Z,999.44
2018-09-03T01:12:28.850Z,999.50
2018-09-03T01:13:28.803Z,999.51
2018-09-03T01:14:28.801Z,999.51
2018-09-03T01:15:28.779Z,999.49
2018-09-03T01:16:28.771Z,999.46
2018-09-03T01:17:28.764Z,999.51
2018-09-03T01:18:28.779Z,999.53
2018-09-03T01:19:28.738Z,999.55
2018-09-03T01:20:28.744Z,999.56
2018-09-03T01:21:28.715Z,999.54
2018-09-03T01:22:28.705Z,999.59
2018-09-03T01:23:28.700Z,999.59
2018-09-03T01:24:28.722Z,999.61
2018-09-03T01:25:28.673Z,999.58
2018-09-03T01:26:28.666Z,999.59
2018-09-03T01:27:28.656Z,999.60
2018-09-03T01:28:28.639Z,999.60
2018-09-03T01:29:28.648Z,999.62
2018-09-03T01:30:28.647Z,999.59
2018-09-03T01:31:28.604Z,999.55
2018-09-03T01:32:28.616Z,999.57
2018-09-03T01:33:28.587Z,999.55
2018-09-03T01:34:28.572Z,999.59
2018-09-03T01:35:28.563Z,999.63
2018-09-03T01:36:28.583Z,999.64
2018-09-03T01:37:28.543Z,999.67
2018-09-03T01:38:28.528Z,999.69
2018-09-03T01:39:28.545Z,999.68
2018-09-03T01:40:28.507Z,999.68
2018-09-03T01:41:28.498Z,999.71
2018-09-03T01:42:28.526Z,999.72
2018-09-03T01:43:28.474Z,999.76
2018-09-03T01:44:28.463Z,999.75
2018-09-03T01:45:28.465Z,999.77
2018-09-03T01:46:28.442Z,999.78
2018-09-03T01:47:28.432Z,999.78
2018-09-03T01:48:28.453Z,999.80
2018-09-03T01:49:28.409Z,999.78
2018-09-03T01:50:28.398Z,999.78
2018-09-03T01:51:28.405Z,999.87
2018-09-03T01:52:28.385Z,999.86
2018-09-03T01:53:28.366Z,999.92
2018-09-03T01:54:28.387Z,999.96
2018-09-03T01:55:28.356Z,999.98
2018-09-03T01:56:28.332Z,1000.00
2018-09-03T01:57:28.341Z,1000.01
2018-09-03T01:58:28.338Z,1000.02
2018-09-03T01:59:28.300Z,1000.00
2018-09-03T02:00:28.335Z,1000.02
2018-09-03T02:01:28.279Z,1000.05
2018-09-03T02:02:28.266Z,1000.01
2018-09-03T02:03:28.262Z,1000.04
2018-09-03T02:04:28.257Z,1000.07
2018-09-03T02:05:28.234Z,1000.06
2018-09-03T02:06:28.255Z,1000.06
2018-09-03T02:07:28.214Z,1000.06
2018-09-03T02:08:28.203Z,1000.08
2018-09-03T02:09:28.196Z,1000.11
2018-09-03T02:10:28.191Z,1000.04
2018-09-03T02:11:28.169Z,1000.03
2018-09-03T02:12:28.189Z,1000.00
2018-09-03T02:13:28.147Z,999.99
2018-09-03T02:14:28.137Z,999.93
2018-09-03T02:15:28.131Z,1000.00
2018-09-03T02:16:28.122Z,1000.03
2018-09-03T02:17:28.105Z,1000.05
2018-09-03T02:18:28.129Z,1000.07
2018-09-03T02:19:28.080Z,1000.06
2018-09-03T02:20:28.073Z,1000.03
2018-09-03T02:21:28.059Z,999.95
2018-09-03T02:22:28.059Z,999.94
2018-09-03T02:23:28.036Z,999.96
2018-09-03T02:24:28.057Z,999.96
2018-09-03T02:25:28.015Z,999.93
2018-09-03T02:26:28.006Z,999.94
2018-09-03T02:27:27.992Z,999.97
2018-09-03T02:28:27.997Z,999.92
2018-09-03T02:29:27.970Z,999.91
2018-09-03T02:30:27.990Z,999.91
2018-09-03T02:31:27.952Z,999.92
2018-09-03T02:32:27.947Z,999.88
2018-09-03T02:33:27.928Z,999.89
2018-09-03T02:34:27.930Z,999.90
2018-09-03T02:35:27.907Z,999.91
2018-09-03T02:36:27.936Z,999.93
2018-09-03T02:37:27.886Z,999.94
2018-09-03T02:38:27.881Z,1000.00
2018-09-03T02:39:27.863Z,999.99
2018-09-03T02:40:27.864Z,1000.01
2018-09-03T02:41:27.840Z,999.97
2018-09-03T02:42:27.863Z,999.95
2018-09-03T02:43:27.820Z,999.97
2018-09-03T02:44:27.809Z,999.93
2018-09-03T02:45:27.798Z,999.90
2018-09-03T02:46:27.805Z,999.87
2018-09-03T02:47:27.778Z,999.83
2018-09-03T02:48:27.820Z,999.82
2018-09-03T02:49:27.754Z,999.80
2018-09-03T02:50:27.742Z,999.78
2018-09-03T02:51:27.732Z,999.78
2018-09-03T02:52:27.745Z,999.77
2018-09-03T02:53:27.710Z,999.75
2018-09-03T02:54:27.742Z,999.73
2018-09-03T02:55:27.690Z,999.71
2018-09-03T02:56:27.677Z,999.72
2018-09-03T02:57:27.665Z,999.74
2018-09-03T02:58:27.666Z,999.77
2018-09-03T02:59:27.644Z,999.79
2018-09-03T03:00:27.667Z,999.77
2018-09-03T03:01:27.624Z,999.73
2018-09-03T03:02:27.614Z,999.73
2018-09-03T03:03:27.614Z,999.72
2018-09-03T03:04:27.591Z,999.72
2018-09-03T03:05:27.580Z,999.75
2018-09-03T03:06:27.602Z,999.76
2018-09-03T03:07:27.559Z,999.77
2018-09-03T03:08:27.547Z,999.79
2018-09-03T03:09:27.551Z,999.80
2018-09-03T03:10:27.529Z,999.81
2018-09-03T03:11:27.514Z,999.77
2018-09-03T03:12:27.542Z,999.79
2018-09-03T03:13:27.492Z,999.78
2018-09-03T03:14:27.483Z,999.72
2018-09-03T03:15:27.489Z,999.70
2018-09-03T03:16:27.464Z,999.70
2018-09-03T03:17:27.449Z,999.66
2018-09-03T03:18:27.481Z,999.69
2018-09-03T03:19:27.439Z,999.65
2018-09-03T03:20:27.416Z,999.68
2018-09-03T03:21:27.417Z,999.64
2018-09-03T03:22:27.397Z,999.61
2018-09-03T03:23:27.385Z,999.60
2018-09-03T03:24:27.407Z,999.58
2018-09-03T03:25:27.361Z,999.59
2018-09-03T03:26:27.350Z,999.59
2018-09-03T03:27:27.369Z,999.57
2018-09-03T03:28:27.328Z,999.53
2018-09-03T03:29:27.321Z,999.52
2018-09-03T03:30:27.346Z,999.56
2018-09-03T03:31:27.300Z,999.49
2018-09-03T03:32:27.285Z,999.49
2018-09-03T03:33:27.282Z,999.45
2018-09-03T03:34:27.262Z,999.43
2018-09-03T03:35:27.252Z,999.42
2018-09-03T03:36:27.272Z,999.41
2018-09-03T03:37:27.232Z,999.37
2018-09-03T03:38:27.219Z,999.38
2018-09-03T03:39:27.208Z,999.36
2018-09-03T03:40:27.225Z,999.30
2018-09-03T03:41:27.186Z,999.33
2018-09-03T03:42:27.210Z,999.32
2018-09-03T03:43:27.166Z,999.31
2018-09-03T03:44:27.158Z,999.30
2018-09-03T03:45:27.164Z,999.31
2018-09-03T03:46:27.300Z,999.23
2018-09-03T03:47:27.157Z,999.21
2018-09-03T03:48:27.173Z,999.22
2018-09-03T03:49:27.101Z,999.17
2018-09-03T03:50:27.311Z,999.20
2018-09-03T03:51:27.078Z,999.25
2018-09-03T03:52:27.069Z,999.25
2018-09-03T03:53:27.062Z,999.25
2018-09-03T03:54:27.096Z,999.24
2018-09-03T03:55:27.044Z,999.27
2018-09-03T03:56:27.056Z,999.24
2018-09-03T03:57:27.018Z,999.28
2018-09-03T03:58:27.004Z,999.28
2018-09-03T03:59:26.992Z,999.30
2018-09-03T04:00:27.016Z,999.32
2018-09-03T04:01:26.983Z,999.28
2018-09-03T04:02:26.958Z,999.29
2018-09-03T04:03:26.992Z,999.27
2018-09-03T04:04:26.943Z,999.25
2018-09-03T04:05:26.954Z,999.26
2018-09-03T04:06:26.994Z,999.26
2018-09-03T04:07:26.907Z,999.26
2018-09-03T04:08:26.894Z,999.25
2018-09-03T04:09:26.901Z,999.26
2018-09-03T04:10:26.875Z,999.27
2018-09-03T04:11:26.869Z,999.26
2018-09-03T04:12:26.938Z,999.27
2018-09-03T04:13:26.848Z,999.24
2018-09-03T04:14:26.850Z,999.25
2018-09-03T04:15:26.816Z,999.26
2018-09-03T04:16:26.807Z,999.26
2018-09-03T04:17:26.793Z,999.27
2018-09-03T04:18:26.836Z,999.29
2018-09-03T04:19:26.773Z,999.32
2018-09-03T04:20:26.767Z,999.33
2018-09-03T04:21:26.758Z,999.34
2018-09-03T04:22:26.743Z,999.30
2018-09-03T04:23:26.913Z,999.33
2018-09-03T04:24:26.759Z,999.34
2018-09-03T04:25:26.740Z,999.26
2018-09-03T04:26:26.704Z,999.26
2018-09-03T04:27:26.686Z,999.26
2018-09-03T04:28:26.967Z,999.28
2018-09-03T04:29:26.876Z,999.25
2018-09-03T04:30:26.807Z,999.30
2018-09-03T04:31:26.692Z,999.25
2018-09-03T04:32:26.700Z,999.28
2018-09-03T04:33:26.654Z,999.27
2018-09-03T04:34:26.661Z,999.17
2018-09-03T04:35:26.599Z,999.16
2018-09-03T04:36:26.629Z,999.13
2018-09-03T04:37:26.579Z,999.09
2018-09-03T04:38:26.581Z,999.08
2018-09-03T04:39:26.558Z,999.08
2018-09-03T04:40:26.546Z,999.06
2018-09-03T04:41:26.565Z,999.04
2018-09-03T04:42:26.572Z,999.02
2018-09-03T04:43:26.524Z,999.07
2018-09-03T04:44:26.524Z,999.07
2018-09-03T04:45:26.493Z,999.05
2018-09-03T04:46:26.478Z,999.02
2018-09-03T04:47:26.467Z,999.03
2018-09-03T04:48:26.548Z,998.99
2018-09-03T04:49:26.459Z,998.94
2018-09-03T04:50:26.441Z,998.98
2018-09-03T04:51:26.455Z,999.01
2018-09-03T04:52:26.415Z,999.03
2018-09-03T04:53:26.402Z,999.04
2018-09-03T04:54:26.435Z,999.01
2018-09-03T04:55:26.389Z,999.03
2018-09-03T04:56:26.376Z,999.01
2018-09-03T04:57:26.383Z,999.04
2018-09-03T04:58:34.186Z,999.05
2018-09-03T04:59:35.645Z,999.06
2018-09-03T05:00:26.343Z,999.08
2018-09-03T05:01:26.326Z,999.11
2018-09-03T05:02:26.314Z,999.07
2018-09-03T05:03:26.300Z,999.08
2018-09-03T05:04:26.289Z,999.13
2018-09-03T05:05:26.385Z,999.11
2018-09-03T05:06:26.273Z,999.16
2018-09-03T05:07:26.253Z,999.14
2018-09-03T05:08:26.238Z,999.18
2018-09-03T05:09:26.230Z,999.17
2018-09-03T05:10:26.219Z,999.17
2018-09-03T05:11:26.245Z,999.17
2018-09-03T05:12:26.198Z,999.18
2018-09-03T05:13:26.194Z,999.24
2018-09-03T05:14:26.173Z,999.23
2018-09-03T05:15:26.163Z,999.25
2018-09-03T05:16:26.154Z,999.20
2018-09-03T05:17:26.190Z,999.21
2018-09-03T05:18:26.129Z,999.24
2018-09-03T05:19:26.121Z,999.19
2018-09-03T05:20:26.109Z,999.18
2018-09-03T05:21:26.097Z,999.19
2018-09-03T05:22:26.088Z,999.21
2018-09-03T05:23:26.116Z,999.18
2018-09-03T05:24:26.068Z,999.19
2018-09-03T05:25:26.064Z,999.17
2018-09-03T05:26:26.055Z,999.15
2018-09-03T05:27:26.042Z,999.10
2018-09-03T05:28:26.026Z,999.09
2018-09-03T05:29:26.046Z,999.03
2018-09-03T05:30:26.007Z,999.05
2018-09-03T05:31:26.040Z,998.97
2018-09-03T05:32:25.984Z,998.99
2018-09-03T05:33:25.969Z,999.03
2018-09-03T05:34:25.958Z,999.05
2018-09-03T05:35:25.990Z,999.13
2018-09-03T05:36:25.936Z,999.12
2018-09-03T05:37:25.924Z,999.12
2018-09-03T05:38:25.913Z,999.11
2018-09-03T05:39:25.901Z,999.09
2018-09-03T05:40:25.904Z,999.07
2018-09-03T05:41:25.968Z,999.05
2018-09-03T05:42:25.882Z,998.99
2018-09-03T05:43:26.044Z,999.03
2018-09-03T05:44:25.847Z,999.02
2018-09-03T05:45:25.838Z,998.99
2018-09-03T05:46:25.835Z,999.03
2018-09-03T05:47:25.862Z,998.96
2018-09-03T05:48:25.811Z,998.96
2018-09-03T05:49:25.807Z,998.99
2018-09-03T05:50:25.923Z,998.98
2018-09-03T05:51:25.780Z,998.98
2018-09-03T05:52:25.765Z,999.01
2018-09-03T05:53:25.792Z,999.04
2018-09-03T05:54:25.749Z,999.00
2018-09-03T05:55:25.734Z,999.01
2018-09-03T05:56:25.720Z,998.99
2018-09-03T05:57:25.716Z,999.04
2018-09-03T05:58:25.695Z,999.00
2018-09-03T05:59:25.715Z,999.01
2018-09-03T06:00:25.671Z,998.99
2018-09-03T06:01:25.660Z,998.96
2018-09-03T06:02:25.663Z,998.94
2018-09-03T06:03:25.638Z,998.90
2018-09-03T06:04:25.627Z,998.97
2018-09-03T06:05:25.653Z,998.99
2018-09-03T06:06:25.608Z,999.01
2018-09-03T06:07:25.594Z,998.99
2018-09-03T06:08:25.595Z,999.05
2018-09-03T06:09:25.604Z,999.03
2018-09-03T06:10:25.663Z,999.09
2018-09-03T06:11:25.615Z,999.11
2018-09-03T06:12:25.547Z,999.07
2018-09-03T06:13:25.530Z,999.10
2018-09-03T06:14:25.516Z,999.11
2018-09-03T06:15:25.508Z,999.09
2018-09-03T06:16:25.494Z,999.01
2018-09-03T06:17:25.514Z,999.02
2018-09-03T06:18:25.480Z,999.01
2018-09-03T06:19:25.474Z,999.04
2018-09-03T06:20:25.457Z,999.00
2018-09-03T06:21:25.454Z,998.97
2018-09-03T06:22:25.448Z,998.97
2018-09-03T06:23:25.456Z,998.97
2018-09-03T06:24:25.417Z,999.00
2018-09-03T06:25:25.399Z,999.00
2018-09-03T06:26:25.398Z,998.97
2018-09-03T06:27:25.378Z,998.99
2018-09-03T06:28:25.368Z,999.04
2018-09-03T06:29:25.443Z,999.02
2018-09-03T06:30:25.359Z,999.03
2018-09-03T06:31:25.344Z,999.04
2018-09-03T06:32:25.323Z,999.01
2018-09-03T06:33:25.323Z,999.02
2018-09-03T06:34:25.298Z,999.02
2018-09-03T06:35:25.325Z,999.04
2018-09-03T06:36:25.295Z,999.06
2018-09-03T06:37:25.302Z,999.04
2018-09-03T06:38:25.264Z,999.00
2018-09-03T06:39:25.279Z,999.06
2018-09-03T06:40:25.251Z,998.98
2018-09-03T06:41:25.275Z,998.94
2018-09-03T06:42:25.228Z,999.02
2018-09-03T06:43:25.214Z,998.96
2018-09-03T06:44:25.199Z,998.93
2018-09-03T06:45:25.183Z,998.91
2018-09-03T06:46:25.213Z,998.95
2018-09-03T06:47:25.246Z,998.93
2018-09-03T06:48:25.179Z,998.92
2018-09-03T06:49:25.136Z,998.94
2018-09-03T06:50:25.132Z,998.89
2018-09-03T06:51:25.121Z,998.92
2018-09-03T06:52:25.099Z,998.88
2018-09-03T06:53:25.206Z,998.93
2018-09-03T06:54:25.077Z,998.97
2018-09-03T06:55:25.075Z,998.92
2018-09-03T06:56:25.069Z,998.98
2018-09-03T06:57:25.050Z,999.01
2018-09-03T06:58:25.040Z,998.98
2018-09-03T06:59:25.120Z,998.98
2018-09-03T07:00:25.062Z,998.97
2018-09-03T07:01:25.016Z,999.06
2018-09-03T07:02:24.992Z,999.02
2018-09-03T07:03:24.984Z,998.97
2018-09-03T07:04:24.978Z,998.97
2018-09-03T07:05:25.029Z,998.94
2018-09-03T07:06:24.959Z,998.93
2018-09-03T07:07:24.947Z,998.94
2018-09-03T07:08:24.937Z,998.92
2018-09-03T07:09:24.917Z,998.97
2018-09-03T07:10:24.912Z,998.96
2018-09-03T07:11:24.928Z,998.96
2018-09-03T07:12:24.891Z,998.87
2018-09-03T07:13:24.875Z,998.91
2018-09-03T07:14:24.867Z,998.88
2018-09-03T07:15:24.865Z,998.90
2018-09-03T07:16:24.858Z,998.89
2018-09-03T07:17:24.882Z,998.92
2018-09-03T07:18:24.835Z,998.88
2018-09-03T07:19:24.838Z,998.89
2018-09-03T07:20:24.805Z,998.88
2018-09-03T07:21:24.814Z,998.90
2018-09-03T07:22:24.814Z,998.90
2018-09-03T07:23:24.813Z,998.84
2018-09-03T07:24:24.755Z,998.86
2018-09-03T07:25:24.750Z,998.83
2018-09-03T07:26:24.739Z,998.84
2018-09-03T07:27:24.729Z,998.82
2018-09-03T07:28:24.717Z,998.80
2018-09-03T07:29:24.730Z,998.75
2018-09-03T07:30:24.690Z,998.76
2018-09-03T07:31:24.702Z,998.77
2018-09-03T07:32:24.679Z,998.74
2018-09-03T07:33:24.661Z,998.75
2018-09-03T07:34:24.668Z,998.77
2018-09-03T07:35:24.667Z,998.73
2018-09-03T07:36:24.619Z,998.74
2018-09-03T07:37:24.649Z,998.71
2018-09-03T07:38:24.609Z,998.71
2018-09-03T07:39:24.594Z,998.71
2018-09-03T07:40:24.583Z,998.75
2018-09-03T07:41:24.608Z,998.75
2018-09-03T07:42:24.573Z,998.71
2018-09-03T07:43:24.559Z,998.70
2018-09-03T07:44:24.536Z,998.75
2018-09-03T07:45:24.526Z,998.79
2018-09-03T07:46:24.522Z,998.78
2018-09-03T07:47:24.548Z,998.74
2018-09-03T07:48:24.504Z,998.78
2018-09-03T07:49:24.493Z,998.86
2018-09-03T07:50:24.498Z,998.89
2018-09-03T07:51:24.460Z,998.87
2018-09-03T07:52:24.452Z,998.87
2018-09-03T07:53:24.476Z,998.84
2018-09-03T07:54:24.434Z,998.86
2018-09-03T07:55:24.477Z,998.84
2018-09-03T07:56:24.407Z,998.86
2018-09-03T07:57:24.396Z,998.84
2018-09-03T07:58:24.387Z,998.84
2018-09-03T07:59:24.420Z,998.81
2018-09-03T08:00:24.371Z,998.74
2018-09-03T08:01:24.360Z,998.70
2018-09-03T08:02:24.352Z,998.67
2018-09-03T08:03:24.331Z,998.67
2018-09-03T08:04:24.363Z,998.65
2018-09-03T08:05:24.343Z,998.65
2018-09-03T08:06:24.308Z,998.67
2018-09-03T08:07:24.353Z,998.69
2018-09-03T08:08:24.314Z,998.66
2018-09-03T08:09:24.275Z,998.61
2018-09-03T08:10:24.269Z,998.61
2018-09-03T08:11:24.341Z,998.63
2018-09-03T08:12:24.249Z,998.65
2018-09-03T08:13:24.244Z,998.70
2018-09-03T08:14:24.227Z,998.73
2018-09-03T08:15:24.211Z,998.72
2018-09-03T08:16:24.206Z,998.71
2018-09-03T08:17:24.268Z,998.75
2018-09-03T08:18:24.176Z,998.82
2018-09-03T08:19:24.167Z,998.80
2018-09-03T08:20:24.168Z,998.80
2018-09-03T08:21:24.166Z,998.81
2018-09-03T08:22:24.145Z,998.83
2018-09-03T08:23:24.158Z,998.78
2018-09-03T08:24:24.111Z,998.77
2018-09-03T08:25:24.101Z,998.79
2018-09-03T08:26:24.087Z,998.84
2018-09-03T08:27:24.085Z,998.86
2018-09-03T08:28:24.104Z,998.85
2018-09-03T08:29:24.113Z,998.90
2018-09-03T08:30:24.057Z,998.90
2018-09-03T08:31:24.039Z,998.92
2018-09-03T08:32:24.024Z,998.92
2018-09-03T08:33:24.016Z,998.92
2018-09-03T08:34:24.034Z,998.92
2018-09-03T08:35:24.076Z,998.89
2018-09-03T08:36:23.984Z,998.93
2018-09-03T08:37:23.977Z,998.91
2018-09-03T08:38:23.973Z,998.89
2018-09-03T08:39:23.956Z,998.90
2018-09-03T08:40:23.937Z,998.91
2018-09-03T08:41:23.995Z,998.89
2018-09-03T08:42:23.935Z,998.92
2018-09-03T08:43:23.904Z,998.95
2018-09-03T08:44:23.896Z,998.87
2018-09-03T08:45:23.882Z,998.89
2018-09-03T08:46:23.873Z,998.86
2018-09-03T08:47:23.911Z,998.85
2018-09-03T08:48:23.865Z,998.84
2018-09-03T08:49:23.848Z,998.84
2018-09-03T08:50:23.856Z,998.86
2018-09-03T08:51:23.838Z,998.85
2018-09-03T08:52:23.881Z,998.82
2018-09-03T08:53:23.854Z,998.87
2018-09-03T08:54:23.815Z,998.84
2018-09-03T08:55:23.775Z,998.80
2018-09-03T08:56:23.803Z,998.78
2018-09-03T08:57:23.758Z,998.80
2018-09-03T08:58:23.755Z,998.79
2018-09-03T08:59:23.777Z,998.81
2018-09-03T09:00:23.734Z,998.86
2018-09-03T09:01:23.763Z,998.87
2018-09-03T09:02:23.711Z,998.86
2018-09-03T09:03:23.721Z,998.84
2018-09-03T09:04:23.684Z,998.84
2018-09-03T09:05:23.699Z,998.82
2018-09-03T09:06:23.699Z,998.81
2018-09-03T09:07:23.667Z,998.84
2018-09-03T09:08:23.655Z,998.86
2018-09-03T09:09:23.626Z,998.79
2018-09-03T09:10:23.610Z,998.83
2018-09-03T09:11:23.650Z,998.79
2018-09-03T09:12:23.591Z,998.78
2018-09-03T09:13:23.585Z,998.79
2018-09-03T09:14:23.618Z,998.82
2018-09-03T09:15:23.579Z,998.80
2018-09-03T09:16:23.592Z,998.83
2018-09-03T09:17:23.613Z,998.85
2018-09-03T09:18:23.539Z,998.91
2018-09-03T09:19:23.521Z,998.89
2018-09-03T09:20:23.508Z,998.91
2018-09-03T09:21:23.505Z,998.88
2018-09-03T09:22:23.504Z,998.84
2018-09-03T09:23:23.504Z,998.87
2018-09-03T09:24:23.509Z,998.89
2018-09-03T09:25:23.455Z,998.86
2018-09-03T09:26:23.446Z,998.85
2018-09-03T09:27:23.443Z,998.87
2018-09-03T09:28:23.423Z,998.83
2018-09-03T09:29:23.454Z,998.81
2018-09-03T09:30:23.447Z,998.82
2018-09-03T09:31:23.393Z,998.79
2018-09-03T09:32:23.388Z,998.85
2018-09-03T09:33:23.374Z,998.83
2018-09-03T09:34:23.391Z,998.82
2018-09-03T09:35:23.381Z,998.83
2018-09-03T09:36:23.348Z,998.82
2018-09-03T09:37:23.348Z,998.82
2018-09-03T09:38:23.352Z,998.82
2018-09-03T09:39:23.312Z,998.83
2018-09-03T09:40:23.328Z,998.84
2018-09-03T09:41:23.329Z,998.80
2018-09-03T09:42:23.271Z,998.77
2018-09-03T09:43:23.289Z,998.74
2018-09-03T09:44:23.284Z,998.72
2018-09-03T09:45:23.246Z,998.69
2018-09-03T09:46:23.244Z,998.67
2018-09-03T09:47:23.340Z,998.60
2018-09-03T09:48:23.219Z,998.64
2018-09-03T09:49:23.229Z,998.57
2018-09-03T09:50:23.211Z,998.64
2018-09-03T09:51:23.202Z,998.63
2018-09-03T09:52:23.189Z,998.63
2018-09-03T09:53:23.186Z,998.59
2018-09-03T09:54:23.188Z,998.59
2018-09-03T09:55:23.139Z,998.63
2018-09-03T09:56:23.131Z,998.67
2018-09-03T09:57:23.113Z,998.64
2018-09-03T09:58:23.108Z,998.60
2018-09-03T09:59:23.122Z,998.62
2018-09-03T10:00:23.082Z,998.59
2018-09-03T10:01:23.082Z,998.54
2018-09-03T10:02:23.065Z,998.56
2018-09-03T10:03:23.059Z,998.50
2018-09-03T10:04:23.111Z,998.47
2018-09-03T10:05:23.080Z,998.50
2018-09-03T10:06:23.024Z,998.49
2018-09-03T10:07:23.004Z,998.46
2018-09-03T10:08:22.992Z,998.37
2018-09-03T10:09:22.980Z,998.41
2018-09-03T10:10:22.975Z,998.41
2018-09-03T10:11:22.984Z,998.39
2018-09-03T10:12:22.948Z,998.42
2018-09-03T10:13:22.932Z,998.41
2018-09-03T10:14:22.927Z,998.39
2018-09-03T10:15:22.946Z,998.41
2018-09-03T10:16:22.903Z,998.42
2018-09-03T10:17:22.933Z,998.45
2018-09-03T10:18:22.879Z,998.43
2018-09-03T10:19:22.899Z,998.41
2018-09-03T10:20:22.862Z,998.40
2018-09-03T10:21:22.847Z,998.41
2018-09-03T10:22:22.856Z,998.37
2018-09-03T10:23:22.876Z,998.36
2018-09-03T10:24:22.810Z,998.39
2018-09-03T10:25:22.802Z,998.35
2018-09-03T10:26:22.874Z,998.41
2018-09-03T10:27:22.785Z,998.34
2018-09-03T10:28:22.790Z,998.39
2018-09-03T10:29:22.789Z,998.35
2018-09-03T10:30:22.754Z,998.33
2018-09-03T10:31:22.742Z,998.32
2018-09-03T10:32:22.732Z,998.30
2018-09-03T10:33:22.718Z,998.37
2018-09-03T10:34:22.742Z,998.31
2018-09-03T10:35:22.723Z,998.32
2018-09-03T10:36:22.685Z,998.31
2018-09-03T10:37:22.675Z,998.25
2018-09-03T10:38:22.663Z,998.25
2018-09-03T10:39:22.657Z,998.35
2018-09-03T10:40:22.683Z,998.33
2018-09-03T10:41:22.667Z,998.35
2018-09-03T10:42:22.654Z,998.30
2018-09-03T10:43:22.610Z,998.32
2018-09-03T10:44:22.599Z,998.28
2018-09-03T10:45:22.590Z,998.24
2018-09-03T10:46:22.589Z,998.24
2018-09-03T10:47:22.643Z,998.23
2018-09-03T10:48:22.557Z,998.21
2018-09-03T10:49:22.552Z,998.19
2018-09-03T10:50:22.552Z,998.15
2018-09-03T10:51:22.526Z,998.11
2018-09-03T10:52:22.510Z,998.11
2018-09-03T10:53:22.558Z,998.16
2018-09-03T10:54:22.495Z,998.17
2018-09-03T10:55:22.484Z,998.18
2018-09-03T10:56:22.476Z,998.23
2018-09-03T10:57:22.465Z,998.20
2018-09-03T10:58:22.453Z,998.13
2018-09-03T10:59:22.512Z,998.12
2018-09-03T11:00:22.423Z,998.14
2018-09-03T11:01:22.413Z,998.11
2018-09-03T11:02:22.404Z,998.16
2018-09-03T11:03:22.396Z,998.13
2018-09-03T11:04:22.388Z,998.08
2018-09-03T11:05:43.396Z,998.03
2018-09-03T11:06:22.369Z,998.02
2018-09-03T11:07:22.352Z,997.97
2018-09-03T11:08:22.349Z,998.01
2018-09-03T11:09:22.339Z,997.97
2018-09-03T11:10:22.321Z,998.01
2018-09-03T11:11:22.376Z,997.96
2018-09-03T11:12:22.312Z,997.93
2018-09-03T11:13:22.291Z,997.91
2018-09-03T11:14:22.410Z,997.89
2018-09-03T11:15:22.271Z,997.84
2018-09-03T11:16:22.269Z,997.83
2018-09-03T11:17:22.306Z,997.83
2018-09-03T11:18:22.247Z,997.84
2018-09-03T11:19:22.232Z,997.79
2018-09-03T11:20:22.212Z,997.79
2018-09-03T11:21:22.321Z,997.77
2018-09-03T11:22:22.259Z,997.79
2018-09-03T11:23:22.224Z,997.78
2018-09-03T11:24:22.173Z,997.78
2018-09-03T11:25:22.165Z,997.73
2018-09-03T11:26:22.169Z,997.74
2018-09-03T11:27:22.142Z,997.76
2018-09-03T11:28:22.142Z,997.78
2018-09-03T11:29:22.224Z,997.76
2018-09-03T11:30:22.113Z,997.78
2018-09-03T11:31:22.101Z,997.81
2018-09-03T11:32:22.096Z,997.83
2018-09-03T11:33:22.084Z,997.73
2018-09-03T11:34:22.069Z,997.75
2018-09-03T11:35:22.110Z,997.72
2018-09-03T11:36:22.044Z,997.71
2018-09-03T11:37:22.037Z,997.71
2018-09-03T11:38:22.024Z,997.72
2018-09-03T11:39:22.015Z,997.70
2018-09-03T11:40:22.001Z,997.69
2018-09-03T11:41:22.047Z,997.71
2018-09-03T11:42:21.992Z,997.71
2018-09-03T11:43:21.970Z,997.73
2018-09-03T11:44:21.964Z,997.73
2018-09-03T11:45:21.951Z,997.74
2018-09-03T11:46:21.941Z,997.73
2018-09-03T11:47:21.969Z,997.80
2018-09-03T11:48:21.916Z,997.75
2018-09-03T11:49:21.910Z,997.80
2018-09-03T11:50:21.909Z,997.74
2018-09-03T11:51:21.898Z,997.75
2018-09-03T11:52:21.880Z,997.73
2018-09-03T11:53:21.907Z,997.79
2018-09-03T11:54:21.915Z,997.78
2018-09-03T11:55:21.845Z,997.71
2018-09-03T11:56:21.837Z,997.77
2018-09-03T11:57:21.824Z,997.75
2018-09-03T11:58:21.816Z,997.67
2018-09-03T11:59:21.868Z,997.65
2018-09-03T12:00:21.812Z,997.68
2018-09-03T12:01:21.800Z,997.66
2018-09-03T12:02:21.777Z,997.63
2018-09-03T12:03:21.765Z,997.68
2018-09-03T12:04:21.751Z,997.69
2018-09-03T12:05:21.775Z,997.66
2018-09-03T12:06:21.735Z,997.66
2018-09-03T12:07:21.745Z,997.72
2018-09-03T12:08:21.709Z,997.73
2018-09-03T12:09:21.698Z,997.80
2018-09-03T12:10:21.689Z,997.74
2018-09-03T12:11:21.727Z,997.69
2018-09-03T12:12:21.663Z,997.64
2018-09-03T12:13:21.668Z,997.65
2018-09-03T12:14:21.650Z,997.63
2018-09-03T12:15:21.661Z,997.64
2018-09-03T12:16:21.655Z,997.63
2018-09-03T12:17:21.637Z,997.59
2018-09-03T12:18:21.609Z,997.55
2018-09-03T12:19:21.619Z,997.55
2018-09-03T12:20:21.582Z,997.56
2018-09-03T12:21:21.566Z,997.53
2018-09-03T12:22:21.555Z,997.52
2018-09-03T12:23:21.577Z,997.53
2018-09-03T12:24:21.538Z,997.59
2018-09-03T12:25:21.541Z,997.59
2018-09-03T12:26:21.513Z,997.59